createdAt,value
2018-09-15T00:00:11.854Z,0.00
2018-09-15T00:03:57.675Z,0.00
2018-09-15T00:04:57.581Z,0.00
2018-09-15T00:05:56.943Z,0.00
2018-09-15T00:07:01.511Z,0.00
2018-09-15T00:07:56.988Z,0.00
2018-09-15T00:08:56.808Z,0.00
2018-09-15T00:09:56.892Z,0.00
2018-09-15T00:10:56.808Z,0.00
2018-09-15T00:11:56.879Z,0.00
2018-09-15T00:12:56.701Z,0.00
2018-09-15T00:13:59.655Z,0.00
2018-09-15T00:14:57.347Z,0.00
2018-09-15T00:15:59.406Z,0.00
2018-09-15T00:16:57.425Z,0.00
2018-09-15T00:17:56.867Z,0.00
2018-09-15T00:18:56.876Z,0.00
2018-09-15T00:19:57.716Z,0.00
2018-09-15T00:20:57.554Z,0.00
2018-09-15T00:21:57.578Z,0.00
2018-09-15T00:22:57.560Z,0.00
2018-09-15T00:24:17.781Z,0.00
2018-09-15T00:24:56.786Z,0.00
2018-09-15T00:25:56.626Z,0.00
2018-09-15T00:26:56.865Z,0.00
2018-09-15T00:27:56.795Z,0.00
2018-09-15T00:28:56.843Z,0.00
2018-09-15T00:29:56.702Z,0.00
2018-09-15T00:30:56.505Z,0.00
2018-09-15T00:31:56.544Z,0.00
2018-09-15T00:32:56.666Z,0.00
2018-09-15T00:33:57.217Z,0.00
2018-09-15T00:35:03.644Z,0.00
2018-09-15T00:35:56.610Z,0.00
2018-09-15T00:38:39.847Z,0.00
2018-09-15T00:41:39.654Z,0.00
2018-09-15T00:42:34.741Z,0.00
2018-09-15T00:43:39.669Z,0.00
2018-09-15T00:44:33.590Z,0.00
2018-09-15T00:45:33.158Z,0.00
2018-09-15T00:46:33.011Z,0.00
2018-09-15T00:47:34.568Z,0.00
2018-09-15T00:48:47.697Z,0.00
2018-09-15T00:54:13.597Z,0.00
2018-09-15T00:55:11.646Z,0.00
2018-09-15T00:56:11.707Z,0.00
2018-09-15T00:57:11.655Z,0.00
2018-09-15T00:58:11.638Z,0.00
2018-09-15T01:00:11.517Z,0.00
2018-09-15T01:01:11.580Z,0.00
2018-09-15T01:02:11.445Z,0.00
2018-09-15T01:03:12.440Z,0.00
2018-09-15T01:04:11.550Z,0.00
2018-09-15T01:05:11.419Z,0.00
2018-09-15T01:06:12.955Z,0.00
2018-09-15T01:07:13.094Z,0.00
2018-09-15T01:08:11.412Z,0.00
2018-09-15T01:13:26.559Z,0.00
2018-09-15T01:14:23.495Z,0.00
2018-09-15T01:17:04.390Z,0.00
2018-09-15T01:18:52.419Z,0.00
2018-09-15T01:21:54.344Z,0.00
2018-09-15T01:22:53.202Z,0.00
2018-09-15T01:25:15.856Z,0.00
2018-09-15T01:26:01.844Z,0.00
2018-09-15T01:27:03.275Z,0.00
2018-09-15T01:28:03.098Z,0.00
2018-09-15T01:29:01.752Z,0.00
2018-09-15T01:30:01.689Z,0.00
2018-09-15T01:31:03.809Z,0.00
2018-09-15T01:32:04.336Z,0.00
2018-09-15T01:33:01.603Z,0.00
2018-09-15T01:34:01.655Z,0.00
2018-09-15T01:35:01.678Z,0.00
2018-09-15T01:37:01.570Z,0.00
2018-09-15T01:38:03.271Z,0.00
2018-09-15T01:39:12.254Z,0.00
2018-09-15T01:40:01.477Z,0.00
2018-09-15T01:41:02.275Z,0.00
2018-09-15T01:42:04.169Z,0.00
2018-09-15T01:43:01.517Z,0.00
2018-09-15T01:44:01.492Z,0.00
2018-09-15T01:45:01.356Z,0.00
2018-09-15T01:46:03.309Z,0.00
2018-09-15T01:47:12.268Z,0.00
2018-09-15T01:49:16.324Z,0.00
2018-09-15T01:50:01.404Z,0.00
2018-09-15T01:51:01.464Z,0.00
2018-09-15T01:53:03.280Z,0.00
2018-09-15T01:54:01.444Z,0.00
2018-09-15T01:55:01.337Z,0.00
2018-09-15T01:56:02.331Z,0.00
2018-09-15T02:00:36.562Z,0.00
2018-09-15T02:01:30.473Z,0.00
2018-09-15T02:02:31.133Z,0.00
2018-09-15T02:03:30.247Z,0.00
2018-09-15T02:04:30.335Z,0.00
2018-09-15T02:05:32.007Z,0.00
2018-09-15T02:06:30.959Z,0.00
2018-09-15T02:07:32.202Z,0.00
2018-09-15T02:08:30.267Z,0.00
2018-09-15T02:09:30.305Z,0.00
2018-09-15T02:11:30.416Z,0.00
2018-09-15T02:12:30.375Z,0.00
2018-09-15T02:13:30.235Z,0.00
2018-09-15T02:14:30.308Z,0.00
2018-09-15T02:15:30.339Z,0.00
2018-09-15T02:16:30.146Z,0.00
2018-09-15T02:18:31.140Z,0.00
2018-09-15T02:19:31.043Z,0.00
2018-09-15T02:20:30.981Z,0.00
2018-09-15T02:21:30.219Z,0.00
2018-09-15T02:22:30.313Z,0.00
2018-09-15T02:23:30.125Z,0.00
2018-09-15T02:24:30.192Z,0.00
2018-09-15T02:25:29.986Z,0.00
2018-09-15T02:26:30.164Z,0.00
2018-09-15T02:27:33.227Z,0.00
2018-09-15T02:28:29.900Z,0.00
2018-09-15T02:29:29.988Z,0.00
2018-09-15T02:30:30.053Z,0.00
2018-09-15T02:31:30.027Z,0.00
2018-09-15T02:32:30.200Z,0.00
2018-09-15T02:33:34.411Z,0.00
2018-09-15T02:34:32.643Z,0.00
2018-09-15T02:35:30.003Z,0.00
2018-09-15T02:36:31.634Z,0.00
2018-09-15T02:37:30.110Z,0.00
2018-09-15T02:38:30.001Z,0.00
2018-09-15T02:39:29.956Z,0.00
2018-09-15T02:40:30.054Z,0.00
2018-09-15T02:41:29.814Z,0.00
2018-09-15T02:42:29.782Z,0.00
2018-09-15T02:43:29.905Z,0.00
2018-09-15T02:44:30.653Z,0.00
2018-09-15T02:45:29.781Z,0.00
2018-09-15T02:48:29.916Z,0.00
2018-09-15T02:49:29.915Z,0.00
2018-09-15T02:50:29.748Z,0.00
2018-09-15T02:51:30.427Z,0.00
2018-09-15T02:52:30.334Z,0.00
2018-09-15T02:53:29.766Z,0.00
2018-09-15T02:54:29.804Z,0.00
2018-09-15T02:55:29.834Z,0.00
2018-09-15T02:56:29.740Z,0.00
2018-09-15T02:57:29.883Z,0.00
2018-09-15T02:58:31.422Z,0.00
2018-09-15T02:59:29.743Z,0.00
2018-09-15T03:00:29.659Z,0.00
2018-09-15T03:01:29.637Z,0.00
2018-09-15T03:02:29.627Z,0.00
2018-09-15T03:03:29.717Z,0.00
2018-09-15T03:04:29.751Z,0.00
2018-09-15T03:05:29.619Z,0.00
2018-09-15T03:06:29.852Z,0.00
2018-09-15T03:07:29.477Z,0.00
2018-09-15T03:08:29.632Z,0.00
2018-09-15T03:09:36.581Z,0.00
2018-09-15T03:10:30.545Z,0.00
2018-09-15T03:11:31.589Z,0.00
2018-09-15T03:12:29.739Z,0.00
2018-09-15T03:13:30.119Z,0.00
2018-09-15T03:14:29.633Z,0.00
2018-09-15T03:15:29.686Z,0.00
2018-09-15T03:16:29.580Z,0.00
2018-09-15T03:17:30.132Z,0.00
2018-09-15T03:18:29.534Z,0.00
2018-09-15T03:19:32.136Z,0.00
2018-09-15T03:20:30.153Z,0.00
2018-09-15T03:21:29.429Z,4.00
2018-09-15T03:22:29.474Z,4.00
2018-09-15T03:23:29.464Z,4.00
2018-09-15T03:24:29.490Z,0.00
2018-09-15T03:25:29.337Z,4.00
2018-09-15T03:26:29.344Z,4.00
2018-09-15T03:27:29.372Z,8.00
2018-09-15T03:28:29.318Z,4.00
2018-09-15T03:29:29.418Z,8.00
2018-09-15T03:30:30.054Z,8.00
2018-09-15T03:31:30.237Z,8.00
2018-09-15T03:32:29.340Z,12.00
2018-09-15T03:33:29.281Z,12.00
2018-09-15T03:34:29.346Z,12.00
2018-09-15T03:35:29.351Z,16.00
2018-09-15T03:36:29.371Z,20.00
2018-09-15T03:37:32.152Z,20.00
2018-09-15T03:38:29.409Z,20.00
2018-09-15T03:39:29.188Z,28.00
2018-09-15T03:40:36.045Z,28.00
2018-09-15T03:41:29.470Z,36.00
2018-09-15T03:42:29.114Z,44.00
2018-09-15T03:43:29.120Z,48.00
2018-09-15T03:44:31.095Z,52.00
2018-09-15T03:45:30.980Z,60.00
2018-09-15T03:46:30.159Z,64.00
2018-09-15T03:47:29.254Z,72.00
2018-09-15T03:48:29.063Z,80.00
2018-09-15T03:49:29.092Z,88.00
2018-09-15T03:50:30.080Z,92.00
2018-09-15T03:51:30.164Z,96.00
2018-09-15T03:52:29.092Z,96.00
2018-09-15T03:53:29.107Z,100.00
2018-09-15T03:54:31.170Z,108.00
2018-09-15T03:55:30.006Z,116.00
2018-09-15T03:56:29.093Z,124.00
2018-09-15T03:57:29.116Z,128.00
2018-09-15T03:58:29.023Z,128.00
2018-09-15T03:59:29.499Z,140.00
2018-09-15T04:00:39.512Z,160.00
2018-09-15T04:01:30.609Z,184.00
2018-09-15T04:02:31.379Z,200.00
2018-09-15T04:03:29.063Z,212.00
2018-09-15T04:04:29.044Z,220.00
2018-09-15T04:05:29.040Z,224.00
2018-09-15T04:06:29.017Z,244.00
2018-09-15T04:07:29.008Z,248.00
2018-09-15T04:08:29.500Z,248.00
2018-09-15T04:09:33.522Z,260.00
2018-09-15T04:10:30.727Z,256.00
2018-09-15T04:11:31.607Z,252.00
2018-09-15T04:12:28.997Z,272.00
2018-09-15T04:13:28.879Z,276.00
2018-09-15T04:14:28.965Z,288.00
2018-09-15T04:15:28.842Z,304.00
2018-09-15T04:16:33.670Z,316.00
2018-09-15T04:17:28.939Z,336.00
2018-09-15T04:18:28.865Z,336.00
2018-09-15T04:19:30.708Z,348.00
2018-09-15T04:20:29.439Z,392.00
2018-09-15T04:21:29.642Z,400.00
2018-09-15T04:22:28.865Z,392.00
2018-09-15T04:23:37.045Z,372.00
2018-09-15T04:25:49.353Z,352.00
2018-09-15T04:26:48.197Z,364.00
2018-09-15T04:27:47.383Z,412.00
2018-09-15T04:28:47.329Z,528.00
2018-09-15T04:29:47.328Z,612.00
2018-09-15T04:30:47.210Z,688.00
2018-09-15T04:31:47.269Z,732.00
2018-09-15T04:32:47.309Z,784.00
2018-09-15T04:33:48.231Z,836.00
2018-09-15T04:34:47.391Z,884.00
2018-09-15T04:35:50.258Z,928.00
2018-09-15T04:36:47.398Z,984.00
2018-09-15T04:37:47.273Z,1032.00
2018-09-15T04:38:49.779Z,1080.00
2018-09-15T04:39:47.152Z,1136.00
2018-09-15T04:40:47.184Z,1184.00
2018-09-15T04:41:48.782Z,1236.00
2018-09-15T04:42:47.186Z,1280.00
2018-09-15T04:43:47.188Z,1320.00
2018-09-15T04:44:47.283Z,1344.00
2018-09-15T04:45:47.252Z,1368.00
2018-09-15T04:46:47.255Z,1380.00
2018-09-15T04:47:47.133Z,1352.00
2018-09-15T04:48:47.204Z,1204.00
2018-09-15T04:51:29.592Z,952.00
2018-09-15T04:54:33.031Z,716.00
2018-09-15T04:57:50.113Z,864.00
2018-09-15T04:58:52.590Z,764.00
2018-09-15T05:01:27.085Z,920.00
2018-09-15T05:04:01.528Z,872.00
2018-09-15T05:04:58.362Z,880.00
2018-09-15T05:08:06.309Z,1028.00
2018-09-15T05:12:01.277Z,1168.00
2018-09-15T05:14:05.672Z,1172.00
2018-09-15T05:14:56.117Z,988.00
2018-09-15T05:17:26.133Z,796.00
2018-09-15T05:23:09.845Z,1060.00
2018-09-15T05:23:35.852Z,1088.00
2018-09-15T05:25:36.704Z,1176.00
2018-09-15T05:26:45.843Z,1184.00
2018-09-15T05:28:34.761Z,1192.00
2018-09-15T05:29:36.802Z,1260.00
2018-09-15T05:30:40.412Z,1376.00
2018-09-15T05:31:34.893Z,1464.00
2018-09-15T05:32:36.847Z,1524.00
2018-09-15T05:33:49.650Z,1576.00
2018-09-15T05:34:39.834Z,1612.00
2018-09-15T05:35:34.895Z,1624.00
2018-09-15T05:39:02.243Z,1628.00
2018-09-15T05:39:50.713Z,1748.00
2018-09-15T05:45:52.030Z,1888.00
2018-09-15T05:50:37.689Z,1700.00
2018-09-15T05:51:19.317Z,1584.00
2018-09-15T05:53:18.233Z,1064.00
2018-09-15T05:54:10.522Z,888.00
2018-09-15T06:02:32.374Z,1844.00
2018-09-15T06:04:26.193Z,1392.00
2018-09-15T06:05:24.600Z,1408.00
2018-09-15T06:31:31.791Z,2564.00
2018-09-15T06:32:09.196Z,2684.00
2018-09-15T06:39:09.475Z,2792.00
2018-09-15T06:59:32.624Z,2664.00
2018-09-15T07:00:34.475Z,2516.00
2018-09-15T07:01:47.427Z,2272.00
2018-09-15T07:03:32.599Z,2828.00
2018-09-15T07:04:32.554Z,2844.00
2018-09-15T07:05:33.065Z,2872.00
2018-09-15T07:06:32.519Z,3072.00
2018-09-15T07:07:33.099Z,2900.00
2018-09-15T07:08:32.459Z,2720.00
2018-09-15T07:10:35.032Z,1924.00
2018-09-15T07:11:32.376Z,2184.00
2018-09-15T07:15:20.341Z,2256.00
2018-09-15T07:16:01.487Z,2852.00
2018-09-15T07:17:01.467Z,3060.00
2018-09-15T07:18:02.143Z,3124.00
2018-09-15T07:19:01.579Z,3760.00
2018-09-15T07:20:01.447Z,4576.00
2018-09-15T07:21:01.375Z,5144.00
2018-09-15T08:19:51.949Z,3132.00
2018-09-15T10:05:15.376Z,5452.00
2018-09-15T10:06:05.401Z,5632.00
2018-09-15T10:51:58.721Z,4180.00
